Zemple, Minnesota
Current Conditions -  °F | °C
As of 12:53 PM on Friday 24 Oct 2014 (Local Time) from KFOZ Reporting Station
Clear Clear  
Wind Chill: 68°   Ceiling: Unl
Heat Index: 68°   Visibility: 10mi
Dew Point: 45°   Wind: 10mph
Humidity: 43%   Direction: 210°SSW
Pressure: 29.77"   Gusts: NA
Location:  47.4603°N, 94.029°W
Report Text: KFOZ 241753Z AUTO 21009KT 10SM CLR 20/07 A2977 RMK AO2
Loading
Personal Weather Stations






























Interactive Weather Map
Tropical Storm Tracking
New forecast layout! Learn more

10-Day Weather Forecast

Advertisements
Track Severe Weather on mobile